sensor_id;sensor_type;location;lat;lon;timestamp;P1;durP1;ratioP1;P2;durP2;ratioP2
24273;SDS011;12392;42.678;23.380;2023-02-23T00:01:39;28.05;;;11.43;;
24273;SDS011;12392;42.678;23.380;2023-02-23T00:04:06;25.60;;;10.82;;
24273;SDS011;12392;42.678;23.380;2023-02-23T00:06:33;27.45;;;11.95;;
24273;SDS011;12392;42.678;23.380;2023-02-23T00:09:00;32.75;;;13.10;;
24273;SDS011;12392;42.678;23.380;2023-02-23T00:11:27;26.60;;;12.30;;
24273;SDS011;12392;42.678;23.380;2023-02-23T00:13:53;25.15;;;13.07;;
24273;SDS011;12392;42.678;23.380;2023-02-23T00:16:24;31.15;;;13.25;;
24273;SDS011;12392;42.678;23.380;2023-02-23T00:18:51;24.48;;;12.60;;
24273;SDS011;12392;42.678;23.380;2023-02-23T00:21:22;28.55;;;12.90;;
24273;SDS011;12392;42.678;23.380;2023-02-23T00:23:59;43.58;;;14.73;;
24273;SDS011;12392;42.678;23.380;2023-02-23T00:26:30;36.55;;;14.05;;
24273;SDS011;12392;42.678;23.380;2023-02-23T00:28:59;36.85;;;15.23;;
24273;SDS011;12392;42.678;23.380;2023-02-23T00:31:29;42.70;;;13.52;;
24273;SDS011;12392;42.678;23.380;2023-02-23T00:33:56;27.85;;;13.40;;
24273;SDS011;12392;42.678;23.380;2023-02-23T00:36:25;33.03;;;13.38;;
24273;SDS011;12392;42.678;23.380;2023-02-23T00:38:56;30.27;;;14.30;;
24273;SDS011;12392;42.678;23.380;2023-02-23T00:41:24;28.90;;;14.48;;
24273;SDS011;12392;42.678;23.380;2023-02-23T00:43:53;25.10;;;12.18;;
24273;SDS011;12392;42.678;23.380;2023-02-23T00:46:20;28.10;;;11.93;;
24273;SDS011;12392;42.678;23.380;2023-02-23T00:48:50;34.28;;;12.63;;
24273;SDS011;12392;42.678;23.380;2023-02-23T00:51:17;29.25;;;12.95;;
24273;SDS011;12392;42.678;23.380;2023-02-23T00:53:43;35.00;;;12.35;;
24273;SDS011;12392;42.678;23.380;2023-02-23T00:56:09;22.77;;;12.00;;
24273;SDS011;12392;42.678;23.380;2023-02-23T00:58:39;27.70;;;12.57;;
24273;SDS011;12392;42.678;23.380;2023-02-23T01:01:09;23.30;;;12.02;;
24273;SDS011;12392;42.678;23.380;2023-02-23T01:03:36;25.50;;;10.73;;
24273;SDS011;12392;42.678;23.380;2023-02-23T01:06:03;18.95;;;10.13;;
24273;SDS011;12392;42.678;23.380;2023-02-23T01:08:31;20.67;;;9.13;;
24273;SDS011;12392;42.678;23.380;2023-02-23T01:10:58;23.52;;;8.75;;
24273;SDS011;12392;42.678;23.380;2023-02-23T01:13:24;17.00;;;8.57;;
24273;SDS011;12392;42.678;23.380;2023-02-23T01:15:52;19.08;;;8.35;;
24273;SDS011;12392;42.678;23.380;2023-02-23T01:18:18;15.40;;;8.05;;
24273;SDS011;12392;42.678;23.380;2023-02-23T01:20:45;19.50;;;9.18;;
24273;SDS011;12392;42.678;23.380;2023-02-23T01:23:11;21.63;;;9.52;;
24273;SDS011;12392;42.678;23.380;2023-02-23T01:25:38;20.17;;;10.52;;
24273;SDS011;12392;42.678;23.380;2023-02-23T01:28:09;26.15;;;11.80;;
24273;SDS011;12392;42.678;23.380;2023-02-23T01:30:35;24.48;;;11.68;;
24273;SDS011;12392;42.678;23.380;2023-02-23T01:33:01;25.60;;;11.52;;
24273;SDS011;12392;42.678;23.380;2023-02-23T01:35:27;34.53;;;13.00;;
24273;SDS011;12392;42.678;23.380;2023-02-23T01:37:53;34.65;;;15.63;;
24273;SDS011;12392;42.678;23.380;2023-02-23T01:40:20;36.10;;;15.32;;
24273;SDS011;12392;42.678;23.380;2023-02-23T01:43:09;33.42;;;14.60;;
24273;SDS011;12392;42.678;23.380;2023-02-23T01:45:45;37.35;;;17.42;;
24273;SDS011;12392;42.678;23.380;2023-02-23T01:48:23;40.33;;;15.18;;
24273;SDS011;12392;42.678;23.380;2023-02-23T01:53:25;67.70;;;26.55;;
24273;SDS011;12392;42.678;23.380;2023-02-23T01:55:54;94.07;;;30.85;;
24273;SDS011;12392;42.678;23.380;2023-02-23T01:58:25;86.22;;;33.92;;
24273;SDS011;12392;42.678;23.380;2023-02-23T02:00:53;91.38;;;33.03;;
24273;SDS011;12392;42.678;23.380;2023-02-23T02:05:52;89.35;;;34.45;;
24273;SDS011;12392;42.678;23.380;2023-02-23T02:08:18;87.80;;;35.42;;
24273;SDS011;12392;42.678;23.380;2023-02-23T02:10:47;87.82;;;35.17;;
24273;SDS011;12392;42.678;23.380;2023-02-23T02:13:19;85.78;;;33.28;;
24273;SDS011;12392;42.678;23.380;2023-02-23T02:21:55;103.25;;;41.35;;
24273;SDS011;12392;42.678;23.380;2023-02-23T02:36:02;99.18;;;34.33;;
24273;SDS011;12392;42.678;23.380;2023-02-23T02:38:52;51.45;;;19.15;;
24273;SDS011;12392;42.678;23.380;2023-02-23T02:41:51;75.45;;;31.08;;
24273;SDS011;12392;42.678;23.380;2023-02-23T02:47:00;70.85;;;26.13;;
24273;SDS011;12392;42.678;23.380;2023-02-23T02:49:35;48.60;;;19.05;;
24273;SDS011;12392;42.678;23.380;2023-02-23T02:52:15;55.42;;;22.30;;
24273;SDS011;12392;42.678;23.380;2023-02-23T02:54:50;58.13;;;23.65;;
24273;SDS011;12392;42.678;23.380;2023-02-23T02:57:18;56.55;;;22.40;;
24273;SDS011;12392;42.678;23.380;2023-02-23T02:59:47;56.80;;;22.67;;
24273;SDS011;12392;42.678;23.380;2023-02-23T03:02:33;44.58;;;19.17;;
24273;SDS011;12392;42.678;23.380;2023-02-23T03:05:21;46.33;;;18.67;;
24273;SDS011;12392;42.678;23.380;2023-02-23T03:08:10;52.08;;;23.80;;
24273;SDS011;12392;42.678;23.380;2023-02-23T03:11:10;92.55;;;34.40;;
24273;SDS011;12392;42.678;23.380;2023-02-23T03:20:25;68.38;;;26.27;;
24273;SDS011;12392;42.678;23.380;2023-02-23T03:26:52;57.03;;;22.85;;
24273;SDS011;12392;42.678;23.380;2023-02-23T03:29:42;54.20;;;20.08;;
24273;SDS011;12392;42.678;23.380;2023-02-23T03:38:19;41.10;;;18.20;;
24273;SDS011;12392;42.678;23.380;2023-02-23T03:41:09;49.53;;;19.33;;
24273;SDS011;12392;42.678;23.380;2023-02-23T03:43:55;35.15;;;14.82;;
24273;SDS011;12392;42.678;23.380;2023-02-23T03:46:41;32.45;;;14.05;;
24273;SDS011;12392;42.678;23.380;2023-02-23T03:49:27;33.22;;;14.95;;
24273;SDS011;12392;42.678;23.380;2023-02-23T03:52:17;44.25;;;18.23;;
24273;SDS011;12392;42.678;23.380;2023-02-23T03:55:09;53.42;;;20.63;;
24273;SDS011;12392;42.678;23.380;2023-02-23T03:58:04;45.88;;;20.15;;
24273;SDS011;12392;42.678;23.380;2023-02-23T04:00:51;42.72;;;18.75;;
24273;SDS011;12392;42.678;23.380;2023-02-23T04:03:37;48.25;;;20.40;;
24273;SDS011;12392;42.678;23.380;2023-02-23T04:06:23;57.65;;;22.15;;
24273;SDS011;12392;42.678;23.380;2023-02-23T04:09:10;62.65;;;25.92;;
24273;SDS011;12392;42.678;23.380;2023-02-23T04:17:23;57.88;;;23.08;;
24273;SDS011;12392;42.678;23.380;2023-02-23T04:19:51;52.88;;;23.95;;
24273;SDS011;12392;42.678;23.380;2023-02-23T04:22:18;64.60;;;27.83;;
24273;SDS011;12392;42.678;23.380;2023-02-23T04:24:44;63.63;;;26.77;;
24273;SDS011;12392;42.678;23.380;2023-02-23T04:27:12;61.05;;;26.33;;
24273;SDS011;12392;42.678;23.380;2023-02-23T04:29:38;52.70;;;23.38;;
24273;SDS011;12392;42.678;23.380;2023-02-23T04:32:05;51.38;;;23.92;;
24273;SDS011;12392;42.678;23.380;2023-02-23T04:34:31;52.95;;;24.23;;
24273;SDS011;12392;42.678;23.380;2023-02-23T04:36:57;50.13;;;21.90;;
24273;SDS011;12392;42.678;23.380;2023-02-23T04:39:23;55.47;;;24.15;;
24273;SDS011;12392;42.678;23.380;2023-02-23T04:41:49;47.17;;;22.80;;
24273;SDS011;12392;42.678;23.380;2023-02-23T04:44:17;51.25;;;23.83;;
24273;SDS011;12392;42.678;23.380;2023-02-23T04:46:43;46.40;;;22.25;;
24273;SDS011;12392;42.678;23.380;2023-02-23T04:49:08;44.70;;;20.55;;
24273;SDS011;12392;42.678;23.380;2023-02-23T04:51:34;45.63;;;20.63;;
24273;SDS011;12392;42.678;23.380;2023-02-23T04:54:01;50.20;;;22.00;;
24273;SDS011;12392;42.678;23.380;2023-02-23T04:56:28;46.40;;;21.38;;
24273;SDS011;12392;42.678;23.380;2023-02-23T04:58:53;49.28;;;21.55;;
24273;SDS011;12392;42.678;23.380;2023-02-23T05:01:19;43.28;;;20.40;;
24273;SDS011;12392;42.678;23.380;2023-02-23T05:03:46;57.53;;;21.35;;
24273;SDS011;12392;42.678;23.380;2023-02-23T05:06:13;42.83;;;20.27;;
24273;SDS011;12392;42.678;23.380;2023-02-23T05:08:40;39.20;;;20.60;;
24273;SDS011;12392;42.678;23.380;2023-02-23T05:11:06;39.75;;;19.48;;
24273;SDS011;12392;42.678;23.380;2023-02-23T05:13:32;54.45;;;21.52;;
24273;SDS011;12392;42.678;23.380;2023-02-23T05:15:58;39.30;;;18.90;;
24273;SDS011;12392;42.678;23.380;2023-02-23T05:18:24;46.63;;;20.98;;
24273;SDS011;12392;42.678;23.380;2023-02-23T05:20:50;61.50;;;23.85;;
24273;SDS011;12392;42.678;23.380;2023-02-23T05:23:17;59.00;;;26.75;;
24273;SDS011;12392;42.678;23.380;2023-02-23T05:25:43;71.05;;;30.65;;
24273;SDS011;12392;42.678;23.380;2023-02-23T05:28:09;74.85;;;29.73;;
24273;SDS011;12392;42.678;23.380;2023-02-23T05:30:34;69.35;;;29.95;;
24273;SDS011;12392;42.678;23.380;2023-02-23T05:33:00;80.07;;;33.20;;
24273;SDS011;12392;42.678;23.380;2023-02-23T05:35:26;94.50;;;38.72;;
24273;SDS011;12392;42.678;23.380;2023-02-23T05:37:52;113.15;;;45.17;;
24273;SDS011;12392;42.678;23.380;2023-02-23T05:40:18;109.32;;;44.25;;
24273;SDS011;12392;42.678;23.380;2023-02-23T05:42:43;106.18;;;44.78;;
24273;SDS011;12392;42.678;23.380;2023-02-23T05:45:09;113.65;;;49.72;;
24273;SDS011;12392;42.678;23.380;2023-02-23T05:47:35;110.55;;;47.50;;
24273;SDS011;12392;42.678;23.380;2023-02-23T05:50:06;103.47;;;47.30;;
24273;SDS011;12392;42.678;23.380;2023-02-23T05:52:36;102.18;;;45.97;;
24273;SDS011;12392;42.678;23.380;2023-02-23T05:55:04;95.88;;;40.58;;
24273;SDS011;12392;42.678;23.380;2023-02-23T05:57:30;67.47;;;30.88;;
24273;SDS011;12392;42.678;23.380;2023-02-23T05:59:56;150.13;;;60.72;;
24273;SDS011;12392;42.678;23.380;2023-02-23T06:02:21;122.93;;;44.30;;
24273;SDS011;12392;42.678;23.380;2023-02-23T06:04:47;80.05;;;38.88;;
24273;SDS011;12392;42.678;23.380;2023-02-23T06:07:13;75.00;;;33.42;;
24273;SDS011;12392;42.678;23.380;2023-02-23T06:09:39;59.85;;;25.38;;
24273;SDS011;12392;42.678;23.380;2023-02-23T06:12:05;57.78;;;25.23;;
24273;SDS011;12392;42.678;23.380;2023-02-23T06:14:31;43.42;;;18.90;;
24273;SDS011;12392;42.678;23.380;2023-02-23T06:16:57;62.58;;;30.15;;
24273;SDS011;12392;42.678;23.380;2023-02-23T06:19:24;64.22;;;32.83;;
24273;SDS011;12392;42.678;23.380;2023-02-23T06:21:49;49.58;;;24.75;;
24273;SDS011;12392;42.678;23.380;2023-02-23T06:24:17;42.97;;;17.95;;
24273;SDS011;12392;42.678;23.380;2023-02-23T06:26:43;37.33;;;17.80;;
24273;SDS011;12392;42.678;23.380;2023-02-23T06:29:09;48.22;;;16.40;;
24273;SDS011;12392;42.678;23.380;2023-02-23T06:31:36;36.50;;;16.15;;
24273;SDS011;12392;42.678;23.380;2023-02-23T06:34:02;40.83;;;15.65;;
24273;SDS011;12392;42.678;23.380;2023-02-23T06:36:27;46.80;;;20.15;;
24273;SDS011;12392;42.678;23.380;2023-02-23T06:38:57;38.85;;;20.08;;
24273;SDS011;12392;42.678;23.380;2023-02-23T06:41:24;39.38;;;18.10;;
24273;SDS011;12392;42.678;23.380;2023-02-23T06:43:50;44.20;;;19.10;;
24273;SDS011;12392;42.678;23.380;2023-02-23T06:46:16;31.50;;;17.65;;
24273;SDS011;12392;42.678;23.380;2023-02-23T06:48:43;37.60;;;18.55;;
24273;SDS011;12392;42.678;23.380;2023-02-23T06:51:08;43.80;;;23.60;;
24273;SDS011;12392;42.678;23.380;2023-02-23T06:53:34;39.70;;;19.85;;
24273;SDS011;12392;42.678;23.380;2023-02-23T06:56:01;43.95;;;19.25;;
24273;SDS011;12392;42.678;23.380;2023-02-23T06:58:27;38.97;;;18.58;;
24273;SDS011;12392;42.678;23.380;2023-02-23T07:00:57;103.47;;;37.28;;
24273;SDS011;12392;42.678;23.380;2023-02-23T07:03:24;67.65;;;28.25;;
24273;SDS011;12392;42.678;23.380;2023-02-23T07:05:50;49.47;;;20.67;;
24273;SDS011;12392;42.678;23.380;2023-02-23T07:08:16;39.67;;;19.25;;
24273;SDS011;12392;42.678;23.380;2023-02-23T07:10:43;37.70;;;17.75;;
24273;SDS011;12392;42.678;23.380;2023-02-23T07:13:09;37.92;;;18.33;;
24273;SDS011;12392;42.678;23.380;2023-02-23T07:15:37;40.78;;;18.25;;
24273;SDS011;12392;42.678;23.380;2023-02-23T07:18:03;34.25;;;16.10;;
24273;SDS011;12392;42.678;23.380;2023-02-23T07:20:29;40.25;;;14.98;;
24273;SDS011;12392;42.678;23.380;2023-02-23T07:23:03;31.23;;;14.45;;
24273;SDS011;12392;42.678;23.380;2023-02-23T07:25:28;26.63;;;14.20;;
24273;SDS011;12392;42.678;23.380;2023-02-23T07:27:54;37.40;;;16.25;;
24273;SDS011;12392;42.678;23.380;2023-02-23T07:30:20;30.65;;;15.07;;
24273;SDS011;12392;42.678;23.380;2023-02-23T07:32:52;33.65;;;15.45;;
24273;SDS011;12392;42.678;23.380;2023-02-23T07:35:18;41.08;;;16.95;;
24273;SDS011;12392;42.678;23.380;2023-02-23T07:37:44;31.13;;;16.58;;
24273;SDS011;12392;42.678;23.380;2023-02-23T07:40:10;34.35;;;17.30;;
24273;SDS011;12392;42.678;23.380;2023-02-23T07:42:36;31.35;;;14.73;;
24273;SDS011;12392;42.678;23.380;2023-02-23T07:45:02;26.17;;;14.63;;
24273;SDS011;12392;42.678;23.380;2023-02-23T07:47:28;26.20;;;14.45;;
24273;SDS011;12392;42.678;23.380;2023-02-23T07:49:58;35.70;;;14.63;;
24273;SDS011;12392;42.678;23.380;2023-02-23T07:52:24;26.85;;;14.10;;
24273;SDS011;12392;42.678;23.380;2023-02-23T07:54:50;22.92;;;12.20;;
24273;SDS011;12392;42.678;23.380;2023-02-23T07:57:16;23.00;;;11.80;;
24273;SDS011;12392;42.678;23.380;2023-02-23T07:59:42;21.55;;;12.18;;
24273;SDS011;12392;42.678;23.380;2023-02-23T08:02:08;29.92;;;12.40;;
24273;SDS011;12392;42.678;23.380;2023-02-23T08:04:35;20.25;;;10.25;;
24273;SDS011;12392;42.678;23.380;2023-02-23T08:07:01;19.02;;;10.07;;
24273;SDS011;12392;42.678;23.380;2023-02-23T08:09:26;13.85;;;7.85;;
24273;SDS011;12392;42.678;23.380;2023-02-23T08:11:54;10.90;;;5.95;;
24273;SDS011;12392;42.678;23.380;2023-02-23T08:14:19;24.30;;;12.02;;
24273;SDS011;12392;42.678;23.380;2023-02-23T08:16:47;15.15;;;7.90;;
24273;SDS011;12392;42.678;23.380;2023-02-23T08:19:13;17.25;;;8.95;;
24273;SDS011;12392;42.678;23.380;2023-02-23T08:21:38;14.85;;;8.13;;
24273;SDS011;12392;42.678;23.380;2023-02-23T08:24:04;16.13;;;8.85;;
24273;SDS011;12392;42.678;23.380;2023-02-23T08:26:30;21.02;;;9.40;;
24273;SDS011;12392;42.678;23.380;2023-02-23T08:28:56;13.93;;;9.10;;
24273;SDS011;12392;42.678;23.380;2023-02-23T08:31:22;15.32;;;9.00;;
24273;SDS011;12392;42.678;23.380;2023-02-23T08:33:48;14.20;;;8.18;;
24273;SDS011;12392;42.678;23.380;2023-02-23T08:36:15;18.77;;;9.07;;
24273;SDS011;12392;42.678;23.380;2023-02-23T08:38:40;18.45;;;8.88;;
24273;SDS011;12392;42.678;23.380;2023-02-23T08:41:06;13.07;;;7.93;;
24273;SDS011;12392;42.678;23.380;2023-02-23T08:43:32;17.23;;;8.82;;
24273;SDS011;12392;42.678;23.380;2023-02-23T08:45:57;35.75;;;16.63;;
24273;SDS011;12392;42.678;23.380;2023-02-23T08:48:23;20.90;;;10.48;;
24273;SDS011;12392;42.678;23.380;2023-02-23T08:50:49;15.10;;;7.85;;
24273;SDS011;12392;42.678;23.380;2023-02-23T08:53:20;15.93;;;8.77;;
24273;SDS011;12392;42.678;23.380;2023-02-23T08:55:47;16.13;;;8.57;;
24273;SDS011;12392;42.678;23.380;2023-02-23T08:58:13;17.10;;;8.32;;
24273;SDS011;12392;42.678;23.380;2023-02-23T09:00:38;12.05;;;6.72;;
24273;SDS011;12392;42.678;23.380;2023-02-23T09:03:05;21.65;;;7.65;;
24273;SDS011;12392;42.678;23.380;2023-02-23T09:05:31;14.98;;;8.25;;
24273;SDS011;12392;42.678;23.380;2023-02-23T09:07:57;18.80;;;8.40;;
24273;SDS011;12392;42.678;23.380;2023-02-23T09:10:23;22.30;;;9.68;;
24273;SDS011;12392;42.678;23.380;2023-02-23T09:12:51;19.80;;;9.45;;
24273;SDS011;12392;42.678;23.380;2023-02-23T09:15:17;21.88;;;10.48;;
24273;SDS011;12392;42.678;23.380;2023-02-23T09:17:43;23.83;;;11.65;;
24273;SDS011;12392;42.678;23.380;2023-02-23T09:20:11;31.30;;;14.48;;
24273;SDS011;12392;42.678;23.380;2023-02-23T09:22:40;22.85;;;10.85;;
24273;SDS011;12392;42.678;23.380;2023-02-23T09:27:39;21.80;;;10.23;;
24273;SDS011;12392;42.678;23.380;2023-02-23T09:30:05;19.90;;;10.27;;
24273;SDS011;12392;42.678;23.380;2023-02-23T09:32:31;20.90;;;9.18;;
24273;SDS011;12392;42.678;23.380;2023-02-23T09:34:56;22.63;;;10.57;;
24273;SDS011;12392;42.678;23.380;2023-02-23T09:37:22;24.63;;;10.50;;
24273;SDS011;12392;42.678;23.380;2023-02-23T09:39:49;21.45;;;10.70;;
24273;SDS011;12392;42.678;23.380;2023-02-23T09:42:19;17.05;;;9.63;;
24273;SDS011;12392;42.678;23.380;2023-02-23T09:50:25;12.80;;;7.47;;
24273;SDS011;12392;42.678;23.380;2023-02-23T09:52:54;21.27;;;7.05;;
24273;SDS011;12392;42.678;23.380;2023-02-23T09:55:22;11.05;;;6.63;;
24273;SDS011;12392;42.678;23.380;2023-02-23T09:57:49;16.23;;;6.50;;
24273;SDS011;12392;42.678;23.380;2023-02-23T10:00:16;13.07;;;6.72;;
24273;SDS011;12392;42.678;23.380;2023-02-23T10:03:05;10.68;;;5.82;;
24273;SDS011;12392;42.678;23.380;2023-02-23T10:05:47;11.80;;;5.82;;
24273;SDS011;12392;42.678;23.380;2023-02-23T10:11:12;17.98;;;5.80;;
24273;SDS011;12392;42.678;23.380;2023-02-23T10:19:39;8.93;;;5.18;;
24273;SDS011;12392;42.678;23.380;2023-02-23T10:22:08;9.70;;;5.20;;
24273;SDS011;12392;42.678;23.380;2023-02-23T10:24:36;12.85;;;5.78;;
24273;SDS011;12392;42.678;23.380;2023-02-23T10:27:09;12.18;;;5.40;;
24273;SDS011;12392;42.678;23.380;2023-02-23T10:29:45;11.00;;;5.55;;
24273;SDS011;12392;42.678;23.380;2023-02-23T10:32:23;8.68;;;4.88;;
24273;SDS011;12392;42.678;23.380;2023-02-23T10:34:52;7.93;;;5.07;;
24273;SDS011;12392;42.678;23.380;2023-02-23T10:37:20;12.63;;;6.32;;
24273;SDS011;12392;42.678;23.380;2023-02-23T10:39:47;11.80;;;5.22;;
24273;SDS011;12392;42.678;23.380;2023-02-23T10:42:22;9.90;;;5.68;;
24273;SDS011;12392;42.678;23.380;2023-02-23T10:44:52;9.13;;;4.72;;
24273;SDS011;12392;42.678;23.380;2023-02-23T10:47:21;8.55;;;4.60;;
24273;SDS011;12392;42.678;23.380;2023-02-23T10:49:57;6.80;;;4.28;;
24273;SDS011;12392;42.678;23.380;2023-02-23T10:54:51;9.38;;;4.35;;
24273;SDS011;12392;42.678;23.380;2023-02-23T10:57:22;8.90;;;4.10;;
24273;SDS011;12392;42.678;23.380;2023-02-23T10:59:58;7.45;;;4.40;;
24273;SDS011;12392;42.678;23.380;2023-02-23T11:02:44;9.52;;;4.82;;
24273;SDS011;12392;42.678;23.380;2023-02-23T11:05:28;8.73;;;4.68;;
24273;SDS011;12392;42.678;23.380;2023-02-23T11:13:37;4.53;;;3.22;;
24273;SDS011;12392;42.678;23.380;2023-02-23T11:16:09;7.43;;;4.55;;
24273;SDS011;12392;42.678;23.380;2023-02-23T11:18:37;8.40;;;3.85;;
24273;SDS011;12392;42.678;23.380;2023-02-23T11:21:16;8.65;;;3.75;;
24273;SDS011;12392;42.678;23.380;2023-02-23T11:23:45;16.65;;;5.95;;
24273;SDS011;12392;42.678;23.380;2023-02-23T11:26:22;11.15;;;5.03;;
24273;SDS011;12392;42.678;23.380;2023-02-23T11:28:50;9.20;;;5.40;;
24273;SDS011;12392;42.678;23.380;2023-02-23T11:31:22;7.57;;;4.18;;
24273;SDS011;12392;42.678;23.380;2023-02-23T11:34:00;10.55;;;4.70;;
24273;SDS011;12392;42.678;23.380;2023-02-23T11:36:29;7.32;;;4.25;;
24273;SDS011;12392;42.678;23.380;2023-02-23T11:39:02;7.97;;;4.28;;
24273;SDS011;12392;42.678;23.380;2023-02-23T11:41:40;7.90;;;3.75;;
24273;SDS011;12392;42.678;23.380;2023-02-23T11:44:05;5.30;;;3.60;;
24273;SDS011;12392;42.678;23.380;2023-02-23T11:46:36;6.28;;;3.33;;
24273;SDS011;12392;42.678;23.380;2023-02-23T11:49:07;9.50;;;3.88;;
24273;SDS011;12392;42.678;23.380;2023-02-23T11:51:40;8.27;;;3.17;;
24273;SDS011;12392;42.678;23.380;2023-02-23T11:54:16;11.93;;;4.38;;
24273;SDS011;12392;42.678;23.380;2023-02-23T11:56:47;7.35;;;3.20;;
24273;SDS011;12392;42.678;23.380;2023-02-23T11:59:16;5.57;;;3.17;;
24273;SDS011;12392;42.678;23.380;2023-02-23T12:01:53;6.60;;;3.78;;
24273;SDS011;12392;42.678;23.380;2023-02-23T12:04:36;4.82;;;3.15;;
24273;SDS011;12392;42.678;23.380;2023-02-23T12:10:29;7.40;;;3.65;;
24273;SDS011;12392;42.678;23.380;2023-02-23T12:20:39;3.28;;;2.40;;
24273;SDS011;12392;42.678;23.380;2023-02-23T12:23:11;5.22;;;3.55;;
24273;SDS011;12392;42.678;23.380;2023-02-23T12:33:35;10.00;;;3.63;;
24273;SDS011;12392;42.678;23.380;2023-02-23T12:46:56;5.28;;;3.28;;
24273;SDS011;12392;42.678;23.380;2023-02-23T12:49:30;4.30;;;2.90;;
24273;SDS011;12392;42.678;23.380;2023-02-23T12:52:11;4.32;;;2.83;;
24273;SDS011;12392;42.678;23.380;2023-02-23T12:54:44;5.30;;;2.83;;
24273;SDS011;12392;42.678;23.380;2023-02-23T12:59:59;7.07;;;3.10;;
24273;SDS011;12392;42.678;23.380;2023-02-23T13:05:17;5.53;;;2.58;;
24273;SDS011;12392;42.678;23.380;2023-02-23T13:07:53;7.65;;;3.05;;
24273;SDS011;12392;42.678;23.380;2023-02-23T13:12:54;3.72;;;2.67;;
24273;SDS011;12392;42.678;23.380;2023-02-23T13:21:15;3.92;;;2.65;;
24273;SDS011;12392;42.678;23.380;2023-02-23T13:24:06;8.45;;;3.20;;
24273;SDS011;12392;42.678;23.380;2023-02-23T13:26:41;7.20;;;3.60;;
24273;SDS011;12392;42.678;23.380;2023-02-23T13:31:52;4.45;;;2.75;;
24273;SDS011;12392;42.678;23.380;2023-02-23T13:34:24;3.75;;;2.80;;
24273;SDS011;12392;42.678;23.380;2023-02-23T13:37:02;7.97;;;3.05;;
24273;SDS011;12392;42.678;23.380;2023-02-23T13:39:43;5.53;;;2.80;;
24273;SDS011;12392;42.678;23.380;2023-02-23T13:48:01;5.43;;;3.05;;
24273;SDS011;12392;42.678;23.380;2023-02-23T13:50:46;3.97;;;2.92;;
24273;SDS011;12392;42.678;23.380;2023-02-23T13:56:09;4.57;;;2.30;;
24273;SDS011;12392;42.678;23.380;2023-02-23T13:58:44;3.80;;;2.55;;
24273;SDS011;12392;42.678;23.380;2023-02-23T14:01:23;5.88;;;2.38;;
24273;SDS011;12392;42.678;23.380;2023-02-23T14:04:00;4.57;;;2.50;;
24273;SDS011;12392;42.678;23.380;2023-02-23T14:06:27;5.22;;;2.58;;
24273;SDS011;12392;42.678;23.380;2023-02-23T14:08:56;4.28;;;2.42;;
24273;SDS011;12392;42.678;23.380;2023-02-23T14:11:46;10.23;;;2.55;;
24273;SDS011;12392;42.678;23.380;2023-02-23T14:14:15;6.22;;;2.58;;
24273;SDS011;12392;42.678;23.380;2023-02-23T14:19:36;7.28;;;4.00;;
24273;SDS011;12392;42.678;23.380;2023-02-23T14:22:08;7.00;;;2.35;;
24273;SDS011;12392;42.678;23.380;2023-02-23T14:24:39;5.90;;;2.65;;
24273;SDS011;12392;42.678;23.380;2023-02-23T14:27:21;8.43;;;2.75;;
24273;SDS011;12392;42.678;23.380;2023-02-23T14:32:38;3.15;;;2.25;;
24273;SDS011;12392;42.678;23.380;2023-02-23T14:35:04;3.95;;;2.85;;
24273;SDS011;12392;42.678;23.380;2023-02-23T14:37:36;4.10;;;2.65;;
24273;SDS011;12392;42.678;23.380;2023-02-23T14:42:33;5.72;;;3.15;;
24273;SDS011;12392;42.678;23.380;2023-02-23T14:48:04;10.52;;;3.03;;
24273;SDS011;12392;42.678;23.380;2023-02-23T14:50:33;7.35;;;3.42;;
24273;SDS011;12392;42.678;23.380;2023-02-23T14:53:00;7.30;;;3.33;;
24273;SDS011;12392;42.678;23.380;2023-02-23T14:55:32;10.32;;;3.50;;
24273;SDS011;12392;42.678;23.380;2023-02-23T14:58:01;9.52;;;2.97;;
24273;SDS011;12392;42.678;23.380;2023-02-23T15:00:29;7.88;;;2.60;;
24273;SDS011;12392;42.678;23.380;2023-02-23T15:05:30;4.30;;;2.47;;
24273;SDS011;12392;42.678;23.380;2023-02-23T15:07:58;6.18;;;3.80;;
24273;SDS011;12392;42.678;23.380;2023-02-23T15:11:09;27.80;;;3.00;;
24273;SDS011;12392;42.678;23.380;2023-02-23T15:15:49;5.82;;;2.97;;
24273;SDS011;12392;42.678;23.380;2023-02-23T15:18:20;4.20;;;2.85;;
24273;SDS011;12392;42.678;23.380;2023-02-23T15:23:13;8.20;;;3.78;;
24273;SDS011;12392;42.678;23.380;2023-02-23T15:25:42;5.57;;;3.40;;
24273;SDS011;12392;42.678;23.380;2023-02-23T15:28:27;6.57;;;3.78;;
24273;SDS011;12392;42.678;23.380;2023-02-23T15:30:54;11.73;;;3.55;;
24273;SDS011;12392;42.678;23.380;2023-02-23T15:33:23;7.50;;;4.40;;
24273;SDS011;12392;42.678;23.380;2023-02-23T15:38:25;8.20;;;4.43;;
24273;SDS011;12392;42.678;23.380;2023-02-23T15:40:57;10.30;;;4.57;;
24273;SDS011;12392;42.678;23.380;2023-02-23T15:43:26;7.05;;;4.25;;
24273;SDS011;12392;42.678;23.380;2023-02-23T15:45:54;7.30;;;4.72;;
24273;SDS011;12392;42.678;23.380;2023-02-23T15:48:21;8.25;;;4.60;;
24273;SDS011;12392;42.678;23.380;2023-02-23T15:50:52;9.95;;;4.50;;
24273;SDS011;12392;42.678;23.380;2023-02-23T15:53:39;9.13;;;4.78;;
24273;SDS011;12392;42.678;23.380;2023-02-23T15:56:12;9.88;;;4.10;;
24273;SDS011;12392;42.678;23.380;2023-02-23T15:58:51;16.33;;;4.22;;
24273;SDS011;12392;42.678;23.380;2023-02-23T16:01:21;13.80;;;4.75;;
24273;SDS011;12392;42.678;23.380;2023-02-23T16:04:00;9.88;;;5.03;;
24273;SDS011;12392;42.678;23.380;2023-02-23T16:12:01;12.43;;;4.18;;
24273;SDS011;12392;42.678;23.380;2023-02-23T16:14:33;8.95;;;4.15;;
24273;SDS011;12392;42.678;23.380;2023-02-23T16:17:04;6.70;;;3.67;;
24273;SDS011;12392;42.678;23.380;2023-02-23T16:19:30;7.15;;;4.05;;
24273;SDS011;12392;42.678;23.380;2023-02-23T16:21:56;6.75;;;3.70;;
24273;SDS011;12392;42.678;23.380;2023-02-23T16:24:23;6.70;;;3.40;;
24273;SDS011;12392;42.678;23.380;2023-02-23T16:26:52;5.28;;;3.35;;
24273;SDS011;12392;42.678;23.380;2023-02-23T16:29:35;5.82;;;3.63;;
24273;SDS011;12392;42.678;23.380;2023-02-23T16:32:09;7.75;;;4.20;;
24273;SDS011;12392;42.678;23.380;2023-02-23T16:34:47;10.68;;;4.30;;
24273;SDS011;12392;42.678;23.380;2023-02-23T16:37:22;11.43;;;4.53;;
24273;SDS011;12392;42.678;23.380;2023-02-23T16:39:52;11.57;;;4.97;;
24273;SDS011;12392;42.678;23.380;2023-02-23T16:44:51;7.03;;;3.97;;
24273;SDS011;12392;42.678;23.380;2023-02-23T16:49:51;7.30;;;4.15;;
24273;SDS011;12392;42.678;23.380;2023-02-23T16:52:18;9.02;;;3.83;;
24273;SDS011;12392;42.678;23.380;2023-02-23T16:54:46;10.75;;;4.05;;
24273;SDS011;12392;42.678;23.380;2023-02-23T16:57:24;8.30;;;4.22;;
24273;SDS011;12392;42.678;23.380;2023-02-23T16:59:52;12.65;;;5.07;;
24273;SDS011;12392;42.678;23.380;2023-02-23T17:02:18;7.28;;;4.20;;
24273;SDS011;12392;42.678;23.380;2023-02-23T17:04:47;11.77;;;4.80;;
24273;SDS011;12392;42.678;23.380;2023-02-23T17:07:14;7.05;;;3.60;;
24273;SDS011;12392;42.678;23.380;2023-02-23T17:09:42;7.40;;;4.80;;
24273;SDS011;12392;42.678;23.380;2023-02-23T17:12:08;9.25;;;5.35;;
24273;SDS011;12392;42.678;23.380;2023-02-23T17:14:35;7.75;;;3.88;;
24273;SDS011;12392;42.678;23.380;2023-02-23T17:17:01;11.90;;;5.10;;